sensor_id;sensor_type;location;lat;lon;timestamp;P1;durP1;ratioP1;P2;durP2;ratioP2
14247;SDS011;7208;49.826;6.004;2023-11-21T00:00:44;0.70;;;0.70;;
14247;SDS011;7208;49.826;6.004;2023-11-21T00:03:11;1.40;;;1.20;;
14247;SDS011;7208;49.826;6.004;2023-11-21T00:05:39;1.57;;;1.40;;
14247;SDS011;7208;49.826;6.004;2023-11-21T00:08:06;1.23;;;1.13;;
14247;SDS011;7208;49.826;6.004;2023-11-21T00:10:33;1.50;;;1.37;;
14247;SDS011;7208;49.826;6.004;2023-11-21T00:12:59;0.97;;;0.97;;
14247;SDS011;7208;49.826;6.004;2023-11-21T00:15:24;1.20;;;1.10;;
14247;SDS011;7208;49.826;6.004;2023-11-21T00:17:51;1.17;;;1.07;;
14247;SDS011;7208;49.826;6.004;2023-11-21T00:20:17;1.40;;;1.30;;
14247;SDS011;7208;49.826;6.004;2023-11-21T00:22:42;1.23;;;1.13;;
14247;SDS011;7208;49.826;6.004;2023-11-21T00:25:08;0.87;;;0.87;;
14247;SDS011;7208;49.826;6.004;2023-11-21T00:27:34;0.90;;;0.90;;
14247;SDS011;7208;49.826;6.004;2023-11-21T00:30:00;1.33;;;0.80;;
14247;SDS011;7208;49.826;6.004;2023-11-21T00:32:26;0.70;;;0.70;;
14247;SDS011;7208;49.826;6.004;2023-11-21T00:34:52;1.07;;;0.97;;
14247;SDS011;7208;49.826;6.004;2023-11-21T00:37:19;1.00;;;0.90;;
14247;SDS011;7208;49.826;6.004;2023-11-21T00:39:45;0.80;;;0.80;;
14247;SDS011;7208;49.826;6.004;2023-11-21T00:42:10;1.23;;;1.10;;
14247;SDS011;7208;49.826;6.004;2023-11-21T00:44:37;1.20;;;0.90;;
14247;SDS011;7208;49.826;6.004;2023-11-21T00:47:04;1.20;;;1.10;;
14247;SDS011;7208;49.826;6.004;2023-11-21T00:49:29;5.70;;;1.57;;
14247;SDS011;7208;49.826;6.004;2023-11-21T00:51:55;1.63;;;1.27;;
14247;SDS011;7208;49.826;6.004;2023-11-21T00:54:23;1.20;;;1.10;;
14247;SDS011;7208;49.826;6.004;2023-11-21T00:56:48;1.20;;;1.10;;
14247;SDS011;7208;49.826;6.004;2023-11-21T00:59:14;1.97;;;1.53;;
14247;SDS011;7208;49.826;6.004;2023-11-21T01:01:40;2.63;;;2.00;;
14247;SDS011;7208;49.826;6.004;2023-11-21T01:04:07;2.13;;;1.53;;
14247;SDS011;7208;49.826;6.004;2023-11-21T01:06:32;1.40;;;1.30;;
14247;SDS011;7208;49.826;6.004;2023-11-21T01:08:58;1.57;;;1.40;;
14247;SDS011;7208;49.826;6.004;2023-11-21T01:11:24;1.77;;;1.20;;
14247;SDS011;7208;49.826;6.004;2023-11-21T01:13:49;2.17;;;1.20;;
14247;SDS011;7208;49.826;6.004;2023-11-21T01:16:15;1.37;;;1.20;;
14247;SDS011;7208;49.826;6.004;2023-11-21T01:18:40;1.47;;;1.37;;
14247;SDS011;7208;49.826;6.004;2023-11-21T01:21:06;1.43;;;1.33;;
14247;SDS011;7208;49.826;6.004;2023-11-21T01:23:32;1.77;;;1.50;;
14247;SDS011;7208;49.826;6.004;2023-11-21T01:25:58;1.20;;;1.10;;
14247;SDS011;7208;49.826;6.004;2023-11-21T01:28:24;3.07;;;1.40;;
14247;SDS011;7208;49.826;6.004;2023-11-21T01:30:49;1.40;;;1.30;;
14247;SDS011;7208;49.826;6.004;2023-11-21T01:33:15;1.17;;;1.00;;
14247;SDS011;7208;49.826;6.004;2023-11-21T01:35:41;0.83;;;0.83;;
14247;SDS011;7208;49.826;6.004;2023-11-21T01:38:08;1.30;;;1.20;;
14247;SDS011;7208;49.826;6.004;2023-11-21T01:40:34;1.20;;;1.03;;
14247;SDS011;7208;49.826;6.004;2023-11-21T01:43:00;0.87;;;0.87;;
14247;SDS011;7208;49.826;6.004;2023-11-21T01:45:28;2.53;;;1.40;;
14247;SDS011;7208;49.826;6.004;2023-11-21T01:47:56;1.60;;;1.00;;
14247;SDS011;7208;49.826;6.004;2023-11-21T01:50:22;1.37;;;1.30;;
14247;SDS011;7208;49.826;6.004;2023-11-21T01:52:48;1.67;;;1.30;;
14247;SDS011;7208;49.826;6.004;2023-11-21T01:55:14;1.50;;;1.40;;
14247;SDS011;7208;49.826;6.004;2023-11-21T01:57:45;1.93;;;1.23;;
14247;SDS011;7208;49.826;6.004;2023-11-21T02:00:11;1.33;;;1.10;;
14247;SDS011;7208;49.826;6.004;2023-11-21T02:02:44;1.30;;;1.10;;
14247;SDS011;7208;49.826;6.004;2023-11-21T02:05:11;4.73;;;1.40;;
14247;SDS011;7208;49.826;6.004;2023-11-21T02:07:40;2.50;;;1.30;;
14247;SDS011;7208;49.826;6.004;2023-11-21T02:10:07;1.67;;;1.10;;
14247;SDS011;7208;49.826;6.004;2023-11-21T02:12:34;1.30;;;1.20;;
14247;SDS011;7208;49.826;6.004;2023-11-21T02:15:02;1.57;;;1.10;;
14247;SDS011;7208;49.826;6.004;2023-11-21T02:17:30;3.30;;;1.30;;
14247;SDS011;7208;49.826;6.004;2023-11-21T02:19:57;1.43;;;1.33;;
14247;SDS011;7208;49.826;6.004;2023-11-21T02:22:24;1.50;;;1.37;;
14247;SDS011;7208;49.826;6.004;2023-11-21T02:24:53;2.13;;;1.63;;
14247;SDS011;7208;49.826;6.004;2023-11-21T02:27:18;2.27;;;1.90;;
14247;SDS011;7208;49.826;6.004;2023-11-21T02:29:46;2.23;;;1.70;;
14247;SDS011;7208;49.826;6.004;2023-11-21T02:32:12;2.80;;;2.10;;
14247;SDS011;7208;49.826;6.004;2023-11-21T02:34:38;3.33;;;2.03;;
14247;SDS011;7208;49.826;6.004;2023-11-21T02:37:04;2.40;;;1.80;;
14247;SDS011;7208;49.826;6.004;2023-11-21T02:39:30;3.03;;;1.97;;
14247;SDS011;7208;49.826;6.004;2023-11-21T02:41:56;2.87;;;1.47;;
14247;SDS011;7208;49.826;6.004;2023-11-21T02:44:22;1.50;;;1.40;;
14247;SDS011;7208;49.826;6.004;2023-11-21T02:46:48;2.53;;;2.07;;
14247;SDS011;7208;49.826;6.004;2023-11-21T02:49:13;2.57;;;1.57;;
14247;SDS011;7208;49.826;6.004;2023-11-21T02:51:39;1.90;;;1.40;;
14247;SDS011;7208;49.826;6.004;2023-11-21T02:54:05;2.27;;;1.60;;
14247;SDS011;7208;49.826;6.004;2023-11-21T02:56:32;2.07;;;1.67;;
14247;SDS011;7208;49.826;6.004;2023-11-21T02:58:59;1.40;;;1.27;;
14247;SDS011;7208;49.826;6.004;2023-11-21T03:01:25;2.70;;;1.17;;
14247;SDS011;7208;49.826;6.004;2023-11-21T03:03:52;1.63;;;1.33;;
14247;SDS011;7208;49.826;6.004;2023-11-21T03:06:21;2.20;;;1.63;;
14247;SDS011;7208;49.826;6.004;2023-11-21T03:08:48;1.83;;;1.50;;
14247;SDS011;7208;49.826;6.004;2023-11-21T03:11:14;2.57;;;1.80;;
14247;SDS011;7208;49.826;6.004;2023-11-21T03:13:40;2.00;;;1.80;;
14247;SDS011;7208;49.826;6.004;2023-11-21T03:16:07;2.13;;;1.87;;
14247;SDS011;7208;49.826;6.004;2023-11-21T03:18:37;2.20;;;1.80;;
14247;SDS011;7208;49.826;6.004;2023-11-21T03:21:06;1.77;;;1.60;;
14247;SDS011;7208;49.826;6.004;2023-11-21T03:23:36;1.73;;;1.60;;
14247;SDS011;7208;49.826;6.004;2023-11-21T03:26:02;3.00;;;2.50;;
14247;SDS011;7208;49.826;6.004;2023-11-21T03:28:28;3.93;;;1.87;;
14247;SDS011;7208;49.826;6.004;2023-11-21T03:30:55;2.87;;;2.07;;
14247;SDS011;7208;49.826;6.004;2023-11-21T03:33:21;1.80;;;1.50;;
14247;SDS011;7208;49.826;6.004;2023-11-21T03:35:47;2.17;;;1.97;;
14247;SDS011;7208;49.826;6.004;2023-11-21T03:38:14;1.63;;;1.50;;
14247;SDS011;7208;49.826;6.004;2023-11-21T03:40:40;2.70;;;1.50;;
14247;SDS011;7208;49.826;6.004;2023-11-21T03:43:06;2.47;;;1.83;;
14247;SDS011;7208;49.826;6.004;2023-11-21T03:45:32;3.00;;;1.90;;
14247;SDS011;7208;49.826;6.004;2023-11-21T03:47:58;2.70;;;1.90;;
14247;SDS011;7208;49.826;6.004;2023-11-21T03:50:26;2.23;;;1.80;;
14247;SDS011;7208;49.826;6.004;2023-11-21T03:52:53;3.23;;;1.93;;
14247;SDS011;7208;49.826;6.004;2023-11-21T03:55:19;2.20;;;1.93;;
14247;SDS011;7208;49.826;6.004;2023-11-21T03:57:45;2.40;;;2.00;;
14247;SDS011;7208;49.826;6.004;2023-11-21T04:00:10;1.57;;;1.40;;
14247;SDS011;7208;49.826;6.004;2023-11-21T04:02:36;2.70;;;1.60;;
14247;SDS011;7208;49.826;6.004;2023-11-21T04:05:02;2.80;;;2.03;;
14247;SDS011;7208;49.826;6.004;2023-11-21T04:07:28;2.77;;;2.07;;
14247;SDS011;7208;49.826;6.004;2023-11-21T04:09:54;2.83;;;1.90;;
14247;SDS011;7208;49.826;6.004;2023-11-21T04:12:20;3.47;;;2.63;;
14247;SDS011;7208;49.826;6.004;2023-11-21T04:14:45;4.50;;;2.13;;
14247;SDS011;7208;49.826;6.004;2023-11-21T04:17:11;3.97;;;2.07;;
14247;SDS011;7208;49.826;6.004;2023-11-21T04:19:36;3.13;;;2.03;;
14247;SDS011;7208;49.826;6.004;2023-11-21T04:22:02;2.13;;;1.70;;
14247;SDS011;7208;49.826;6.004;2023-11-21T04:24:29;2.57;;;2.27;;
14247;SDS011;7208;49.826;6.004;2023-11-21T04:26:54;2.83;;;2.43;;
14247;SDS011;7208;49.826;6.004;2023-11-21T04:29:20;2.17;;;1.70;;
14247;SDS011;7208;49.826;6.004;2023-11-21T04:31:46;2.70;;;1.60;;
14247;SDS011;7208;49.826;6.004;2023-11-21T04:34:13;5.70;;;2.13;;
14247;SDS011;7208;49.826;6.004;2023-11-21T04:36:39;2.77;;;1.60;;
14247;SDS011;7208;49.826;6.004;2023-11-21T04:39:05;2.87;;;1.83;;
14247;SDS011;7208;49.826;6.004;2023-11-21T04:41:31;2.60;;;1.73;;
14247;SDS011;7208;49.826;6.004;2023-11-21T04:43:57;3.17;;;2.13;;
14247;SDS011;7208;49.826;6.004;2023-11-21T04:46:25;2.83;;;1.73;;
14247;SDS011;7208;49.826;6.004;2023-11-21T04:48:51;4.03;;;2.10;;
14247;SDS011;7208;49.826;6.004;2023-11-21T04:51:17;3.83;;;1.97;;
14247;SDS011;7208;49.826;6.004;2023-11-21T04:53:43;3.47;;;2.27;;
14247;SDS011;7208;49.826;6.004;2023-11-21T04:56:08;2.30;;;2.10;;
14247;SDS011;7208;49.826;6.004;2023-11-21T04:58:34;4.03;;;2.50;;
14247;SDS011;7208;49.826;6.004;2023-11-21T05:01:00;3.10;;;2.03;;
14247;SDS011;7208;49.826;6.004;2023-11-21T05:03:26;2.53;;;1.90;;
14247;SDS011;7208;49.826;6.004;2023-11-21T05:05:51;3.50;;;2.30;;
14247;SDS011;7208;49.826;6.004;2023-11-21T05:08:17;4.17;;;2.30;;
14247;SDS011;7208;49.826;6.004;2023-11-21T05:10:44;3.97;;;2.70;;
14247;SDS011;7208;49.826;6.004;2023-11-21T05:13:09;3.97;;;2.63;;
14247;SDS011;7208;49.826;6.004;2023-11-21T05:15:35;3.77;;;2.73;;
14247;SDS011;7208;49.826;6.004;2023-11-21T05:18:02;4.03;;;2.83;;
14247;SDS011;7208;49.826;6.004;2023-11-21T05:20:28;3.57;;;2.50;;
14247;SDS011;7208;49.826;6.004;2023-11-21T05:22:53;5.60;;;2.83;;
14247;SDS011;7208;49.826;6.004;2023-11-21T05:25:19;3.60;;;2.83;;
14247;SDS011;7208;49.826;6.004;2023-11-21T05:27:45;4.00;;;3.20;;
14247;SDS011;7208;49.826;6.004;2023-11-21T05:30:11;4.60;;;2.87;;
14247;SDS011;7208;49.826;6.004;2023-11-21T05:32:39;4.07;;;2.43;;
14247;SDS011;7208;49.826;6.004;2023-11-21T05:35:07;5.60;;;3.07;;
14247;SDS011;7208;49.826;6.004;2023-11-21T05:37:37;4.43;;;2.80;;
14247;SDS011;7208;49.826;6.004;2023-11-21T05:40:05;3.70;;;2.53;;
14247;SDS011;7208;49.826;6.004;2023-11-21T05:42:32;4.50;;;2.70;;
14247;SDS011;7208;49.826;6.004;2023-11-21T05:44:58;4.00;;;3.00;;
14247;SDS011;7208;49.826;6.004;2023-11-21T05:47:24;4.93;;;2.83;;
14247;SDS011;7208;49.826;6.004;2023-11-21T05:49:51;3.63;;;3.00;;
14247;SDS011;7208;49.826;6.004;2023-11-21T05:52:17;4.17;;;2.80;;
14247;SDS011;7208;49.826;6.004;2023-11-21T05:54:43;4.70;;;3.00;;
14247;SDS011;7208;49.826;6.004;2023-11-21T05:57:08;3.43;;;2.67;;
14247;SDS011;7208;49.826;6.004;2023-11-21T05:59:34;4.73;;;2.30;;
14247;SDS011;7208;49.826;6.004;2023-11-21T06:02:00;5.67;;;3.20;;
14247;SDS011;7208;49.826;6.004;2023-11-21T06:04:27;3.87;;;2.70;;
14247;SDS011;7208;49.826;6.004;2023-11-21T06:06:52;5.23;;;2.93;;
14247;SDS011;7208;49.826;6.004;2023-11-21T06:09:18;3.27;;;2.97;;
14247;SDS011;7208;49.826;6.004;2023-11-21T06:11:45;6.07;;;3.33;;
14247;SDS011;7208;49.826;6.004;2023-11-21T06:14:11;4.57;;;2.73;;
14247;SDS011;7208;49.826;6.004;2023-11-21T06:16:36;3.53;;;2.40;;
14247;SDS011;7208;49.826;6.004;2023-11-21T06:19:02;3.40;;;2.40;;
14247;SDS011;7208;49.826;6.004;2023-11-21T06:21:28;6.10;;;2.73;;
14247;SDS011;7208;49.826;6.004;2023-11-21T06:23:53;3.87;;;2.50;;
14247;SDS011;7208;49.826;6.004;2023-11-21T06:26:21;5.03;;;2.60;;
14247;SDS011;7208;49.826;6.004;2023-11-21T06:28:47;6.30;;;3.30;;
14247;SDS011;7208;49.826;6.004;2023-11-21T06:31:16;4.27;;;3.20;;
14247;SDS011;7208;49.826;6.004;2023-11-21T06:33:42;8.93;;;3.40;;
14247;SDS011;7208;49.826;6.004;2023-11-21T06:36:08;4.33;;;2.73;;
14247;SDS011;7208;49.826;6.004;2023-11-21T06:38:36;7.57;;;3.03;;
14247;SDS011;7208;49.826;6.004;2023-11-21T06:41:02;7.90;;;3.13;;
14247;SDS011;7208;49.826;6.004;2023-11-21T06:43:29;5.83;;;3.53;;
14247;SDS011;7208;49.826;6.004;2023-11-21T06:45:56;8.23;;;3.43;;
14247;SDS011;7208;49.826;6.004;2023-11-21T06:48:22;4.83;;;2.97;;
14247;SDS011;7208;49.826;6.004;2023-11-21T06:50:47;5.23;;;3.73;;
14247;SDS011;7208;49.826;6.004;2023-11-21T06:53:13;5.43;;;3.17;;
14247;SDS011;7208;49.826;6.004;2023-11-21T06:55:39;4.43;;;2.67;;
14247;SDS011;7208;49.826;6.004;2023-11-21T06:58:05;4.57;;;2.80;;
14247;SDS011;7208;49.826;6.004;2023-11-21T07:00:31;6.17;;;2.97;;
14247;SDS011;7208;49.826;6.004;2023-11-21T07:02:56;4.43;;;3.37;;
14247;SDS011;7208;49.826;6.004;2023-11-21T07:05:22;3.53;;;2.43;;
14247;SDS011;7208;49.826;6.004;2023-11-21T07:07:50;5.17;;;3.80;;
14247;SDS011;7208;49.826;6.004;2023-11-21T07:10:15;4.83;;;3.10;;
14247;SDS011;7208;49.826;6.004;2023-11-21T07:12:42;5.87;;;3.43;;
14247;SDS011;7208;49.826;6.004;2023-11-21T07:15:07;7.90;;;3.27;;
14247;SDS011;7208;49.826;6.004;2023-11-21T07:17:36;5.97;;;3.53;;
14247;SDS011;7208;49.826;6.004;2023-11-21T07:20:02;4.43;;;3.07;;
14247;SDS011;7208;49.826;6.004;2023-11-21T07:22:28;7.40;;;3.77;;
14247;SDS011;7208;49.826;6.004;2023-11-21T07:24:55;4.60;;;3.57;;
14247;SDS011;7208;49.826;6.004;2023-11-21T07:27:21;7.73;;;4.10;;
14247;SDS011;7208;49.826;6.004;2023-11-21T07:29:47;4.63;;;2.90;;
14247;SDS011;7208;49.826;6.004;2023-11-21T07:32:15;5.30;;;3.40;;
14247;SDS011;7208;49.826;6.004;2023-11-21T07:34:41;5.03;;;3.37;;
14247;SDS011;7208;49.826;6.004;2023-11-21T07:37:07;3.97;;;2.60;;
14247;SDS011;7208;49.826;6.004;2023-11-21T07:39:34;6.13;;;2.73;;
14247;SDS011;7208;49.826;6.004;2023-11-21T07:42:01;3.70;;;3.17;;
14247;SDS011;7208;49.826;6.004;2023-11-21T07:44:27;4.00;;;2.90;;
14247;SDS011;7208;49.826;6.004;2023-11-21T07:46:54;5.47;;;3.00;;
14247;SDS011;7208;49.826;6.004;2023-11-21T07:49:22;5.60;;;3.10;;
14247;SDS011;7208;49.826;6.004;2023-11-21T07:51:51;4.20;;;2.47;;
14247;SDS011;7208;49.826;6.004;2023-11-21T07:54:17;4.13;;;3.33;;
14247;SDS011;7208;49.826;6.004;2023-11-21T07:56:43;4.27;;;3.00;;
14247;SDS011;7208;49.826;6.004;2023-11-21T07:59:09;5.13;;;3.43;;
14247;SDS011;7208;49.826;6.004;2023-11-21T08:01:34;3.50;;;2.10;;
14247;SDS011;7208;49.826;6.004;2023-11-21T08:04:00;4.37;;;2.60;;
14247;SDS011;7208;49.826;6.004;2023-11-21T08:06:29;4.87;;;2.40;;
14247;SDS011;7208;49.826;6.004;2023-11-21T08:08:55;4.13;;;3.07;;
14247;SDS011;7208;49.826;6.004;2023-11-21T08:11:21;5.10;;;2.67;;
14247;SDS011;7208;49.826;6.004;2023-11-21T08:13:47;3.43;;;2.07;;
14247;SDS011;7208;49.826;6.004;2023-11-21T08:16:13;3.97;;;2.53;;
14247;SDS011;7208;49.826;6.004;2023-11-21T08:18:38;5.40;;;2.57;;
14247;SDS011;7208;49.826;6.004;2023-11-21T08:21:06;4.30;;;2.67;;
14247;SDS011;7208;49.826;6.004;2023-11-21T08:23:33;5.30;;;2.43;;
14247;SDS011;7208;49.826;6.004;2023-11-21T08:25:59;4.53;;;1.73;;
14247;SDS011;7208;49.826;6.004;2023-11-21T08:28:25;4.00;;;2.70;;
14247;SDS011;7208;49.826;6.004;2023-11-21T08:30:53;4.47;;;2.70;;
14247;SDS011;7208;49.826;6.004;2023-11-21T08:33:21;4.33;;;2.47;;
14247;SDS011;7208;49.826;6.004;2023-11-21T08:35:48;6.33;;;2.97;;
14247;SDS011;7208;49.826;6.004;2023-11-21T08:38:13;5.40;;;3.43;;
14247;SDS011;7208;49.826;6.004;2023-11-21T08:40:39;4.60;;;2.47;;
14247;SDS011;7208;49.826;6.004;2023-11-21T08:43:05;5.73;;;2.73;;
14247;SDS011;7208;49.826;6.004;2023-11-21T08:45:30;4.50;;;3.03;;
14247;SDS011;7208;49.826;6.004;2023-11-21T08:47:59;7.47;;;3.37;;
14247;SDS011;7208;49.826;6.004;2023-11-21T08:50:25;3.90;;;2.90;;
14247;SDS011;7208;49.826;6.004;2023-11-21T08:52:50;5.97;;;2.80;;
14247;SDS011;7208;49.826;6.004;2023-11-21T08:55:16;6.17;;;3.47;;
14247;SDS011;7208;49.826;6.004;2023-11-21T08:57:43;6.17;;;2.70;;
14247;SDS011;7208;49.826;6.004;2023-11-21T09:00:11;6.40;;;3.13;;
14247;SDS011;7208;49.826;6.004;2023-11-21T09:02:40;5.87;;;2.97;;
14247;SDS011;7208;49.826;6.004;2023-11-21T09:05:12;5.70;;;3.37;;
14247;SDS011;7208;49.826;6.004;2023-11-21T09:07:39;6.60;;;4.63;;
14247;SDS011;7208;49.826;6.004;2023-11-21T09:10:06;5.93;;;4.13;;
14247;SDS011;7208;49.826;6.004;2023-11-21T09:12:33;7.07;;;4.37;;
14247;SDS011;7208;49.826;6.004;2023-11-21T09:15:00;7.07;;;3.53;;
14247;SDS011;7208;49.826;6.004;2023-11-21T09:17:27;4.70;;;4.13;;
14247;SDS011;7208;49.826;6.004;2023-11-21T09:19:53;4.37;;;3.07;;
14247;SDS011;7208;49.826;6.004;2023-11-21T09:22:18;6.07;;;3.47;;
14247;SDS011;7208;49.826;6.004;2023-11-21T09:24:44;5.03;;;3.47;;
14247;SDS011;7208;49.826;6.004;2023-11-21T09:27:10;7.80;;;4.10;;
14247;SDS011;7208;49.826;6.004;2023-11-21T09:29:36;6.40;;;4.10;;
14247;SDS011;7208;49.826;6.004;2023-11-21T09:32:03;6.33;;;4.33;;
14247;SDS011;7208;49.826;6.004;2023-11-21T09:34:31;6.37;;;3.90;;
14247;SDS011;7208;49.826;6.004;2023-11-21T09:37:04;7.20;;;3.77;;
14247;SDS011;7208;49.826;6.004;2023-11-21T09:39:34;5.63;;;3.53;;
14247;SDS011;7208;49.826;6.004;2023-11-21T09:42:08;5.43;;;3.03;;
14247;SDS011;7208;49.826;6.004;2023-11-21T09:44:52;4.57;;;3.20;;
14247;SDS011;7208;49.826;6.004;2023-11-21T09:47:26;7.63;;;4.30;;
14247;SDS011;7208;49.826;6.004;2023-11-21T09:49:52;4.90;;;4.00;;
14247;SDS011;7208;49.826;6.004;2023-11-21T09:52:25;6.67;;;4.20;;
14247;SDS011;7208;49.826;6.004;2023-11-21T09:54:52;5.93;;;3.77;;
14247;SDS011;7208;49.826;6.004;2023-11-21T09:57:23;6.63;;;4.33;;
14247;SDS011;7208;49.826;6.004;2023-11-21T09:59:53;6.97;;;4.03;;
14247;SDS011;7208;49.826;6.004;2023-11-21T10:02:27;7.07;;;4.30;;
14247;SDS011;7208;49.826;6.004;2023-11-21T10:04:55;8.20;;;4.67;;
14247;SDS011;7208;49.826;6.004;2023-11-21T10:07:21;5.80;;;4.97;;
14247;SDS011;7208;49.826;6.004;2023-11-21T10:09:48;4.37;;;3.80;;
14247;SDS011;7208;49.826;6.004;2023-11-21T10:12:16;6.03;;;4.43;;
14247;SDS011;7208;49.826;6.004;2023-11-21T10:14:42;6.13;;;4.70;;
14247;SDS011;7208;49.826;6.004;2023-11-21T10:17:12;5.63;;;3.97;;
14247;SDS011;7208;49.826;6.004;2023-11-21T10:19:41;5.67;;;4.47;;
14247;SDS011;7208;49.826;6.004;2023-11-21T10:22:08;5.87;;;4.40;;
14247;SDS011;7208;49.826;6.004;2023-11-21T10:24:34;6.03;;;4.50;;
14247;SDS011;7208;49.826;6.004;2023-11-21T10:27:01;5.27;;;4.53;;
14247;SDS011;7208;49.826;6.004;2023-11-21T10:29:31;4.20;;;3.80;;
14247;SDS011;7208;49.826;6.004;2023-11-21T10:32:01;5.03;;;3.37;;
14247;SDS011;7208;49.826;6.004;2023-11-21T10:34:27;5.07;;;4.00;;
14247;SDS011;7208;49.826;6.004;2023-11-21T10:36:53;8.43;;;4.17;;
14247;SDS011;7208;49.826;6.004;2023-11-21T10:39:19;5.50;;;4.13;;
14247;SDS011;7208;49.826;6.004;2023-11-21T10:41:46;8.27;;;3.67;;
14247;SDS011;7208;49.826;6.004;2023-11-21T10:44:16;4.20;;;3.33;;
14247;SDS011;7208;49.826;6.004;2023-11-21T10:46:46;5.13;;;3.33;;
14247;SDS011;7208;49.826;6.004;2023-11-21T10:49:16;6.57;;;3.97;;
14247;SDS011;7208;49.826;6.004;2023-11-21T10:51:45;4.23;;;3.43;;
14247;SDS011;7208;49.826;6.004;2023-11-21T10:54:16;5.77;;;2.93;;
14247;SDS011;7208;49.826;6.004;2023-11-21T10:56:46;5.63;;;3.53;;
14247;SDS011;7208;49.826;6.004;2023-11-21T10:59:16;6.00;;;3.17;;
14247;SDS011;7208;49.826;6.004;2023-11-21T11:01:42;3.50;;;2.77;;
14247;SDS011;7208;49.826;6.004;2023-11-21T11:04:11;3.77;;;2.80;;
14247;SDS011;7208;49.826;6.004;2023-11-21T11:06:45;5.17;;;3.07;;
14247;SDS011;7208;49.826;6.004;2023-11-21T11:09:19;3.80;;;3.50;;
14247;SDS011;7208;49.826;6.004;2023-11-21T11:11:46;4.30;;;3.40;;
14247;SDS011;7208;49.826;6.004;2023-11-21T11:14:12;4.10;;;3.23;;
14247;SDS011;7208;49.826;6.004;2023-11-21T11:16:38;6.07;;;2.87;;
14247;SDS011;7208;49.826;6.004;2023-11-21T11:19:08;4.27;;;3.23;;
14247;SDS011;7208;49.826;6.004;2023-11-21T11:21:38;5.20;;;3.57;;
14247;SDS011;7208;49.826;6.004;2023-11-21T11:24:33;6.93;;;4.07;;
14247;SDS011;7208;49.826;6.004;2023-11-21T11:29:41;5.37;;;3.40;;
14247;SDS011;7208;49.826;6.004;2023-11-21T11:32:30;5.50;;;3.33;;
14247;SDS011;7208;49.826;6.004;2023-11-21T11:35:16;4.97;;;3.37;;
14247;SDS011;7208;49.826;6.004;2023-11-21T11:37:49;5.73;;;3.23;;
14247;SDS011;7208;49.826;6.004;2023-11-21T11:40:14;4.10;;;3.20;;
14247;SDS011;7208;49.826;6.004;2023-11-21T11:42:54;4.67;;;3.40;;
14247;SDS011;7208;49.826;6.004;2023-11-21T11:45:22;3.50;;;2.60;;
14247;SDS011;7208;49.826;6.004;2023-11-21T11:47:57;6.20;;;2.60;;
14247;SDS011;7208;49.826;6.004;2023-11-21T11:50:22;4.93;;;2.83;;
14247;SDS011;7208;49.826;6.004;2023-11-21T11:52:50;3.57;;;2.80;;
14247;SDS011;7208;49.826;6.004;2023-11-21T11:55:18;6.27;;;3.20;;
14247;SDS011;7208;49.826;6.004;2023-11-21T11:57:46;5.60;;;3.60;;
14247;SDS011;7208;49.826;6.004;2023-11-21T12:00:42;4.67;;;3.17;;
14247;SDS011;7208;49.826;6.004;2023-11-21T12:03:07;4.17;;;3.30;;
14247;SDS011;7208;49.826;6.004;2023-11-21T12:05:34;4.37;;;3.07;;
14247;SDS011;7208;49.826;6.004;2023-11-21T12:08:04;4.23;;;3.00;;
14247;SDS011;7208;49.826;6.004;2023-11-21T12:10:32;4.97;;;3.67;;
14247;SDS011;7208;49.826;6.004;2023-11-21T12:13:02;7.70;;;3.00;;
14247;SDS011;7208;49.826;6.004;2023-11-21T12:15:32;6.30;;;3.60;;
14247;SDS011;7208;49.826;6.004;2023-11-21T12:17:58;4.87;;;2.90;;
14247;SDS011;7208;49.826;6.004;2023-11-21T12:20:24;6.20;;;3.30;;
14247;SDS011;7208;49.826;6.004;2023-11-21T12:22:52;5.27;;;2.57;;
14247;SDS011;7208;49.826;6.004;2023-11-21T12:25:20;3.93;;;2.97;;
14247;SDS011;7208;49.826;6.004;2023-11-21T12:27:48;5.83;;;2.80;;
14247;SDS011;7208;49.826;6.004;2023-11-21T12:30:15;6.73;;;3.43;;
14247;SDS011;7208;49.826;6.004;2023-11-21T12:32:42;3.77;;;2.90;;
14247;SDS011;7208;49.826;6.004;2023-11-21T12:35:09;6.50;;;3.20;;
14247;SDS011;7208;49.826;6.004;2023-11-21T12:37:38;4.03;;;3.13;;
14247;SDS011;7208;49.826;6.004;2023-11-21T12:40:06;4.33;;;2.90;;
14247;SDS011;7208;49.826;6.004;2023-11-21T12:42:40;3.60;;;2.70;;
14247;SDS011;7208;49.826;6.004;2023-11-21T12:45:07;4.40;;;2.93;;
14247;SDS011;7208;49.826;6.004;2023-11-21T12:47:36;6.30;;;3.47;;
14247;SDS011;7208;49.826;6.004;2023-11-21T12:50:02;6.40;;;2.90;;
14247;SDS011;7208;49.826;6.004;2023-11-21T12:52:31;6.03;;;3.03;;
14247;SDS011;7208;49.826;6.004;2023-11-21T12:54:57;5.23;;;3.07;;
14247;SDS011;7208;49.826;6.004;2023-11-21T12:57:26;3.80;;;2.80;;
14247;SDS011;7208;49.826;6.004;2023-11-21T12:59:56;4.83;;;3.03;;
14247;SDS011;7208;49.826;6.004;2023-11-21T13:02:25;5.23;;;3.70;;
14247;SDS011;7208;49.826;6.004;2023-11-21T13:04:52;4.90;;;3.80;;
14247;SDS011;7208;49.826;6.004;2023-11-21T13:07:19;6.60;;;3.27;;
14247;SDS011;7208;49.826;6.004;2023-11-21T13:09:46;4.53;;;2.70;;
14247;SDS011;7208;49.826;6.004;2023-11-21T13:12:11;5.00;;;2.57;;
14247;SDS011;7208;49.826;6.004;2023-11-21T13:14:39;4.23;;;3.03;;
14247;SDS011;7208;49.826;6.004;2023-11-21T13:17:05;9.40;;;3.20;;
14247;SDS011;7208;49.826;6.004;2023-11-21T13:19:31;4.67;;;3.77;;
14247;SDS011;7208;49.826;6.004;2023-11-21T13:21:56;4.80;;;2.70;;
14247;SDS011;7208;49.826;6.004;2023-11-21T13:24:23;5.50;;;2.90;;
14247;SDS011;7208;49.826;6.004;2023-11-21T13:26:50;5.20;;;3.40;;
14247;SDS011;7208;49.826;6.004;2023-11-21T13:29:16;5.73;;;3.23;;
14247;SDS011;7208;49.826;6.004;2023-11-21T13:31:42;2.93;;;2.33;;
14247;SDS011;7208;49.826;6.004;2023-11-21T13:34:08;4.40;;;2.83;;
14247;SDS011;7208;49.826;6.004;2023-11-21T13:36:33;3.67;;;2.43;;
14247;SDS011;7208;49.826;6.004;2023-11-21T13:39:00;6.77;;;3.07;;
14247;SDS011;7208;49.826;6.004;2023-11-21T13:41:32;4.07;;;2.77;;
14247;SDS011;7208;49.826;6.004;2023-11-21T13:43:59;4.77;;;2.83;;
14247;SDS011;7208;49.826;6.004;2023-11-21T13:46:51;4.10;;;2.30;;
14247;SDS011;7208;49.826;6.004;2023-11-21T13:49:17;5.17;;;3.00;;
14247;SDS011;7208;49.826;6.004;2023-11-21T13:51:46;4.17;;;2.30;;
14247;SDS011;7208;49.826;6.004;2023-11-21T13:54:15;4.50;;;2.10;;
14247;SDS011;7208;49.826;6.004;2023-11-21T13:56:41;3.50;;;2.67;;
14247;SDS011;7208;49.826;6.004;2023-11-21T13:59:09;4.70;;;2.93;;
14247;SDS011;7208;49.826;6.004;2023-11-21T14:01:45;4.73;;;2.70;;
14247;SDS011;7208;49.826;6.004;2023-11-21T14:04:21;4.60;;;2.60;;
14247;SDS011;7208;49.826;6.004;2023-11-21T14:07:18;5.70;;;2.93;;
14247;SDS011;7208;49.826;6.004;2023-11-21T14:10:09;4.93;;;2.83;;
14247;SDS011;7208;49.826;6.004;2023-11-21T14:12:39;3.73;;;2.93;;
14247;SDS011;7208;49.826;6.004;2023-11-21T14:15:07;3.40;;;2.63;;
14247;SDS011;7208;49.826;6.004;2023-11-21T14:17:35;3.83;;;2.07;;
14247;SDS011;7208;49.826;6.004;2023-11-21T14:20:03;2.77;;;2.47;;
14247;SDS011;7208;49.826;6.004;2023-11-21T14:22:30;3.13;;;2.33;;
14247;SDS011;7208;49.826;6.004;2023-11-21T14:24:56;3.60;;;2.47;;
14247;SDS011;7208;49.826;6.004;2023-11-21T14:27:25;2.93;;;2.40;;
14247;SDS011;7208;49.826;6.004;2023-11-21T14:29:50;4.97;;;2.50;;
14247;SDS011;7208;49.826;6.004;2023-11-21T14:32:17;3.80;;;2.20;;
14247;SDS011;7208;49.826;6.004;2023-11-21T14:34:43;3.97;;;2.90;;
14247;SDS011;7208;49.826;6.004;2023-11-21T14:37:12;4.10;;;2.17;;
14247;SDS011;7208;49.826;6.004;2023-11-21T14:39:39;2.23;;;2.03;;
14247;SDS011;7208;49.826;6.004;2023-11-21T14:42:09;3.30;;;2.20;;
14247;SDS011;7208;49.826;6.004;2023-11-21T14:44:35;3.07;;;1.90;;
14247;SDS011;7208;49.826;6.004;2023-11-21T14:47:05;2.47;;;1.60;;
14247;SDS011;7208;49.826;6.004;2023-11-21T14:49:37;3.20;;;1.80;;
14247;SDS011;7208;49.826;6.004;2023-11-21T14:52:17;2.77;;;1.80;;
14247;SDS011;7208;49.826;6.004;2023-11-21T14:54:59;4.10;;;1.83;;
14247;SDS011;7208;49.826;6.004;2023-11-21T14:58:04;2.73;;;1.83;;
14247;SDS011;7208;49.826;6.004;2023-11-21T15:00:30;4.10;;;2.37;;
14247;SDS011;7208;49.826;6.004;2023-11-21T15:02:59;2.07;;;1.70;;
14247;SDS011;7208;49.826;6.004;2023-11-21T15:05:25;3.47;;;1.97;;